To NAV CANADA Home Page Login to a new session Search on AWWS site Feedback and Comments Disclaimer Vers la page française équivalente Tips FAQ What's new on the site To the Forecasts and Observations / NOTAM section To "File a Flight Plan" website Publications and other links Update of the User's profile FIC Telephone Numbers My Weather Data Folder Route Weather Data Regional Weather Data Local Weather Data To the Forecasts and Observations / NOTAM section
Request Generated 04/24/2014 at 12:53:08 UTC . Weather information available at that time is displayed.

METAR/TAF

TORONTO/BUTTONVILLE MUNICIPAL/ON    

METAR CYKZ 241200Z 34007KT 15SM FEW260 04/M07 A3014 RMK CI1 CI TR SLP213=
METAR CYKZ 241100Z 33006KT 15SM BKN260 01/M07 A3014 RMK CI2 SLP213=
METAR CYKZ 241000Z 33006KT 15SM SKC 01/M07 A3012 RMK SLP206=

TAF CYKZ 241138Z 2412/2424 33006KT P6SM BKN260
BECMG 2412/2414 35008KT SCT200
FM242300 03007KT P6SM BKN120
RMK NXT FCST BY 241800Z=
Your time UTC time
Weather data provided by Environment Canada and NAV CANADA